sensor_id;sensor_type;location;lat;lon;timestamp;P1;durP1;ratioP1;P2;durP2;ratioP2
53115;SDS011;39010;48.088;7.954;2022-12-10T00:01:23;55.15;;;24.23;;
53115;SDS011;39010;48.088;7.954;2022-12-10T00:03:51;52.20;;;24.48;;
53115;SDS011;39010;48.088;7.954;2022-12-10T00:06:22;55.13;;;24.63;;
53115;SDS011;39010;48.088;7.954;2022-12-10T00:08:51;49.72;;;23.23;;
53115;SDS011;39010;48.088;7.954;2022-12-10T00:11:18;52.78;;;22.92;;
53115;SDS011;39010;48.088;7.954;2022-12-10T00:13:45;49.47;;;22.83;;
53115;SDS011;39010;48.088;7.954;2022-12-10T00:16:14;43.72;;;21.85;;
53115;SDS011;39010;48.088;7.954;2022-12-10T00:18:42;47.65;;;21.27;;
53115;SDS011;39010;48.088;7.954;2022-12-10T00:21:10;49.42;;;22.77;;
53115;SDS011;39010;48.088;7.954;2022-12-10T00:23:38;52.10;;;24.02;;
53115;SDS011;39010;48.088;7.954;2022-12-10T00:26:09;47.47;;;22.63;;
53115;SDS011;39010;48.088;7.954;2022-12-10T00:28:36;46.50;;;22.42;;
53115;SDS011;39010;48.088;7.954;2022-12-10T00:31:08;49.22;;;22.75;;
53115;SDS011;39010;48.088;7.954;2022-12-10T00:33:38;46.67;;;22.83;;
53115;SDS011;39010;48.088;7.954;2022-12-10T00:36:06;45.67;;;22.38;;
53115;SDS011;39010;48.088;7.954;2022-12-10T00:38:35;48.13;;;21.58;;
53115;SDS011;39010;48.088;7.954;2022-12-10T00:41:02;52.70;;;23.67;;
53115;SDS011;39010;48.088;7.954;2022-12-10T00:43:32;46.00;;;22.35;;
53115;SDS011;39010;48.088;7.954;2022-12-10T00:45:59;46.90;;;22.55;;
53115;SDS011;39010;48.088;7.954;2022-12-10T00:48:25;49.00;;;23.02;;
53115;SDS011;39010;48.088;7.954;2022-12-10T00:50:58;50.33;;;23.67;;
53115;SDS011;39010;48.088;7.954;2022-12-10T00:53:28;45.38;;;22.40;;
53115;SDS011;39010;48.088;7.954;2022-12-10T00:55:55;51.47;;;22.70;;
53115;SDS011;39010;48.088;7.954;2022-12-10T00:58:23;49.72;;;23.80;;
53115;SDS011;39010;48.088;7.954;2022-12-10T01:00:52;49.17;;;22.80;;
53115;SDS011;39010;48.088;7.954;2022-12-10T01:03:18;48.35;;;22.20;;
53115;SDS011;39010;48.088;7.954;2022-12-10T01:05:45;50.65;;;21.52;;
53115;SDS011;39010;48.088;7.954;2022-12-10T01:08:12;47.80;;;21.70;;
53115;SDS011;39010;48.088;7.954;2022-12-10T01:10:39;45.95;;;21.58;;
53115;SDS011;39010;48.088;7.954;2022-12-10T01:13:06;43.75;;;21.92;;
53115;SDS011;39010;48.088;7.954;2022-12-10T01:15:36;44.00;;;22.08;;
53115;SDS011;39010;48.088;7.954;2022-12-10T01:18:04;45.15;;;21.35;;
53115;SDS011;39010;48.088;7.954;2022-12-10T01:23:00;51.72;;;22.65;;
53115;SDS011;39010;48.088;7.954;2022-12-10T01:25:26;47.83;;;23.33;;
53115;SDS011;39010;48.088;7.954;2022-12-10T01:27:52;51.10;;;23.48;;
53115;SDS011;39010;48.088;7.954;2022-12-10T01:30:19;56.10;;;24.30;;
53115;SDS011;39010;48.088;7.954;2022-12-10T01:32:45;50.72;;;23.73;;
53115;SDS011;39010;48.088;7.954;2022-12-10T01:37:39;54.03;;;24.77;;
53115;SDS011;39010;48.088;7.954;2022-12-10T01:40:06;60.17;;;26.65;;
53115;SDS011;39010;48.088;7.954;2022-12-10T01:42:33;56.38;;;25.92;;
53115;SDS011;39010;48.088;7.954;2022-12-10T01:45:01;51.70;;;24.27;;
53115;SDS011;39010;48.088;7.954;2022-12-10T01:47:29;54.65;;;23.73;;
53115;SDS011;39010;48.088;7.954;2022-12-10T01:49:57;56.83;;;24.33;;
53115;SDS011;39010;48.088;7.954;2022-12-10T01:52:24;52.83;;;23.95;;
53115;SDS011;39010;48.088;7.954;2022-12-10T01:54:51;48.55;;;22.88;;
53115;SDS011;39010;48.088;7.954;2022-12-10T01:57:18;51.10;;;24.30;;
53115;SDS011;39010;48.088;7.954;2022-12-10T01:59:49;51.40;;;24.02;;
53115;SDS011;39010;48.088;7.954;2022-12-10T02:02:38;50.97;;;23.50;;
53115;SDS011;39010;48.088;7.954;2022-12-10T02:05:19;51.60;;;22.35;;
53115;SDS011;39010;48.088;7.954;2022-12-10T02:10:26;53.88;;;23.55;;
53115;SDS011;39010;48.088;7.954;2022-12-10T02:13:12;51.42;;;22.20;;
53115;SDS011;39010;48.088;7.954;2022-12-10T02:15:47;52.35;;;23.98;;
53115;SDS011;39010;48.088;7.954;2022-12-10T02:18:22;46.47;;;22.67;;
53115;SDS011;39010;48.088;7.954;2022-12-10T02:20:58;50.40;;;24.67;;
53115;SDS011;39010;48.088;7.954;2022-12-10T02:23:36;49.25;;;21.88;;
53115;SDS011;39010;48.088;7.954;2022-12-10T02:32:02;49.92;;;22.17;;
53115;SDS011;39010;48.088;7.954;2022-12-10T02:34:35;47.13;;;21.77;;
53115;SDS011;39010;48.088;7.954;2022-12-10T02:37:08;44.38;;;22.40;;
53115;SDS011;39010;48.088;7.954;2022-12-10T02:39:43;47.67;;;22.65;;
53115;SDS011;39010;48.088;7.954;2022-12-10T02:42:14;46.40;;;21.75;;
53115;SDS011;39010;48.088;7.954;2022-12-10T02:44:43;43.17;;;21.70;;
53115;SDS011;39010;48.088;7.954;2022-12-10T02:47:12;44.90;;;21.63;;
53115;SDS011;39010;48.088;7.954;2022-12-10T02:49:42;47.47;;;21.48;;
53115;SDS011;39010;48.088;7.954;2022-12-10T02:52:13;44.17;;;20.40;;
53115;SDS011;39010;48.088;7.954;2022-12-10T02:54:47;46.33;;;21.77;;
53115;SDS011;39010;48.088;7.954;2022-12-10T02:59:51;45.85;;;20.98;;
53115;SDS011;39010;48.088;7.954;2022-12-10T03:02:29;47.45;;;21.38;;
53115;SDS011;39010;48.088;7.954;2022-12-10T03:05:03;46.67;;;21.05;;
53115;SDS011;39010;48.088;7.954;2022-12-10T03:07:37;45.78;;;20.10;;
53115;SDS011;39010;48.088;7.954;2022-12-10T03:10:31;40.95;;;20.00;;
53115;SDS011;39010;48.088;7.954;2022-12-10T03:13:06;44.28;;;20.17;;
53115;SDS011;39010;48.088;7.954;2022-12-10T03:15:37;44.17;;;20.92;;
53115;SDS011;39010;48.088;7.954;2022-12-10T03:18:06;45.70;;;19.88;;
53115;SDS011;39010;48.088;7.954;2022-12-10T03:20:37;42.85;;;21.25;;
53115;SDS011;39010;48.088;7.954;2022-12-10T03:23:08;45.28;;;20.02;;
53115;SDS011;39010;48.088;7.954;2022-12-10T03:25:38;45.00;;;20.33;;
53115;SDS011;39010;48.088;7.954;2022-12-10T03:28:05;44.58;;;20.35;;
53115;SDS011;39010;48.088;7.954;2022-12-10T03:30:33;42.78;;;20.75;;
53115;SDS011;39010;48.088;7.954;2022-12-10T03:33:02;41.92;;;19.95;;
53115;SDS011;39010;48.088;7.954;2022-12-10T03:35:30;44.35;;;20.73;;
53115;SDS011;39010;48.088;7.954;2022-12-10T03:37:57;43.65;;;20.60;;
53115;SDS011;39010;48.088;7.954;2022-12-10T03:40:24;44.80;;;21.58;;
53115;SDS011;39010;48.088;7.954;2022-12-10T03:42:51;42.67;;;20.45;;
53115;SDS011;39010;48.088;7.954;2022-12-10T03:45:18;42.22;;;20.98;;
53115;SDS011;39010;48.088;7.954;2022-12-10T03:47:48;45.20;;;20.13;;
53115;SDS011;39010;48.088;7.954;2022-12-10T03:50:15;43.03;;;20.13;;
53115;SDS011;39010;48.088;7.954;2022-12-10T03:52:42;48.63;;;22.00;;
53115;SDS011;39010;48.088;7.954;2022-12-10T03:55:09;43.80;;;20.73;;
53115;SDS011;39010;48.088;7.954;2022-12-10T03:57:36;51.67;;;21.48;;
53115;SDS011;39010;48.088;7.954;2022-12-10T04:02:37;47.97;;;22.10;;
53115;SDS011;39010;48.088;7.954;2022-12-10T04:07:31;49.92;;;22.75;;
53115;SDS011;39010;48.088;7.954;2022-12-10T04:09:57;47.75;;;23.17;;
53115;SDS011;39010;48.088;7.954;2022-12-10T04:12:23;49.28;;;22.17;;
53115;SDS011;39010;48.088;7.954;2022-12-10T04:14:50;54.90;;;22.95;;
53115;SDS011;39010;48.088;7.954;2022-12-10T04:17:35;53.08;;;23.50;;
53115;SDS011;39010;48.088;7.954;2022-12-10T04:20:02;51.97;;;23.92;;
53115;SDS011;39010;48.088;7.954;2022-12-10T04:22:29;52.13;;;22.10;;
53115;SDS011;39010;48.088;7.954;2022-12-10T04:25:13;44.97;;;22.48;;
53115;SDS011;39010;48.088;7.954;2022-12-10T04:27:58;46.72;;;21.38;;
53115;SDS011;39010;48.088;7.954;2022-12-10T04:30:25;47.42;;;21.50;;
53115;SDS011;39010;48.088;7.954;2022-12-10T04:32:51;46.80;;;22.60;;
53115;SDS011;39010;48.088;7.954;2022-12-10T04:35:17;52.15;;;23.35;;
53115;SDS011;39010;48.088;7.954;2022-12-10T04:37:44;45.85;;;21.23;;
53115;SDS011;39010;48.088;7.954;2022-12-10T04:40:10;44.38;;;22.90;;
53115;SDS011;39010;48.088;7.954;2022-12-10T04:42:37;47.08;;;22.27;;
53115;SDS011;39010;48.088;7.954;2022-12-10T04:45:06;49.58;;;23.27;;
53115;SDS011;39010;48.088;7.954;2022-12-10T04:47:33;44.97;;;21.80;;
53115;SDS011;39010;48.088;7.954;2022-12-10T04:49:59;50.58;;;22.13;;
53115;SDS011;39010;48.088;7.954;2022-12-10T04:52:25;50.92;;;23.52;;
53115;SDS011;39010;48.088;7.954;2022-12-10T04:57:18;49.70;;;23.02;;
53115;SDS011;39010;48.088;7.954;2022-12-10T04:59:45;44.92;;;21.23;;
53115;SDS011;39010;48.088;7.954;2022-12-10T05:02:12;45.58;;;22.20;;
53115;SDS011;39010;48.088;7.954;2022-12-10T05:04:39;46.42;;;22.88;;
53115;SDS011;39010;48.088;7.954;2022-12-10T05:07:05;49.17;;;22.48;;
53115;SDS011;39010;48.088;7.954;2022-12-10T05:09:33;50.28;;;22.23;;
53115;SDS011;39010;48.088;7.954;2022-12-10T05:11:59;48.28;;;21.55;;
53115;SDS011;39010;48.088;7.954;2022-12-10T05:14:26;46.00;;;21.38;;
53115;SDS011;39010;48.088;7.954;2022-12-10T05:16:52;52.67;;;22.35;;
53115;SDS011;39010;48.088;7.954;2022-12-10T05:19:19;46.78;;;22.90;;
53115;SDS011;39010;48.088;7.954;2022-12-10T05:21:46;48.63;;;23.35;;
53115;SDS011;39010;48.088;7.954;2022-12-10T05:24:31;48.90;;;23.10;;
53115;SDS011;39010;48.088;7.954;2022-12-10T05:26:57;52.88;;;23.42;;
53115;SDS011;39010;48.088;7.954;2022-12-10T05:29:24;52.35;;;23.90;;
53115;SDS011;39010;48.088;7.954;2022-12-10T05:34:17;50.35;;;22.63;;
53115;SDS011;39010;48.088;7.954;2022-12-10T05:36:43;51.40;;;24.10;;
53115;SDS011;39010;48.088;7.954;2022-12-10T05:39:10;53.88;;;24.63;;
53115;SDS011;39010;48.088;7.954;2022-12-10T05:41:37;53.88;;;24.40;;
53115;SDS011;39010;48.088;7.954;2022-12-10T05:44:05;53.45;;;25.02;;
53115;SDS011;39010;48.088;7.954;2022-12-10T05:46:32;55.28;;;25.45;;
53115;SDS011;39010;48.088;7.954;2022-12-10T05:49:00;54.50;;;25.05;;
53115;SDS011;39010;48.088;7.954;2022-12-10T05:51:29;50.70;;;24.23;;
53115;SDS011;39010;48.088;7.954;2022-12-10T05:53:57;55.25;;;24.98;;
53115;SDS011;39010;48.088;7.954;2022-12-10T05:56:27;54.72;;;25.27;;
53115;SDS011;39010;48.088;7.954;2022-12-10T05:58:54;57.60;;;24.10;;
53115;SDS011;39010;48.088;7.954;2022-12-10T06:01:25;54.85;;;25.38;;
53115;SDS011;39010;48.088;7.954;2022-12-10T06:03:53;53.70;;;24.92;;
53115;SDS011;39010;48.088;7.954;2022-12-10T06:06:23;60.22;;;26.50;;
53115;SDS011;39010;48.088;7.954;2022-12-10T06:08:52;59.08;;;26.48;;
53115;SDS011;39010;48.088;7.954;2022-12-10T06:11:18;62.13;;;26.45;;
53115;SDS011;39010;48.088;7.954;2022-12-10T06:13:45;57.55;;;26.83;;
53115;SDS011;39010;48.088;7.954;2022-12-10T06:16:17;60.53;;;27.17;;
53115;SDS011;39010;48.088;7.954;2022-12-10T06:18:43;53.53;;;26.52;;
53115;SDS011;39010;48.088;7.954;2022-12-10T06:21:11;54.97;;;26.02;;
53115;SDS011;39010;48.088;7.954;2022-12-10T06:23:39;59.20;;;25.92;;
53115;SDS011;39010;48.088;7.954;2022-12-10T06:28:35;60.50;;;27.25;;
53115;SDS011;39010;48.088;7.954;2022-12-10T06:31:02;59.42;;;26.67;;
53115;SDS011;39010;48.088;7.954;2022-12-10T06:33:29;53.15;;;24.80;;
53115;SDS011;39010;48.088;7.954;2022-12-10T06:35:56;59.22;;;26.38;;
53115;SDS011;39010;48.088;7.954;2022-12-10T06:38:24;53.58;;;25.08;;
53115;SDS011;39010;48.088;7.954;2022-12-10T06:40:50;51.05;;;24.25;;
53115;SDS011;39010;48.088;7.954;2022-12-10T06:43:17;51.40;;;24.50;;
53115;SDS011;39010;48.088;7.954;2022-12-10T06:45:44;56.72;;;25.08;;
53115;SDS011;39010;48.088;7.954;2022-12-10T06:48:10;49.28;;;24.92;;
53115;SDS011;39010;48.088;7.954;2022-12-10T06:50:37;45.00;;;23.17;;
53115;SDS011;39010;48.088;7.954;2022-12-10T06:53:03;50.30;;;25.13;;
53115;SDS011;39010;48.088;7.954;2022-12-10T06:55:30;51.90;;;25.38;;
53115;SDS011;39010;48.088;7.954;2022-12-10T06:57:56;71.53;;;32.15;;
53115;SDS011;39010;48.088;7.954;2022-12-10T07:00:23;67.05;;;29.85;;
53115;SDS011;39010;48.088;7.954;2022-12-10T07:02:49;67.63;;;31.35;;
53115;SDS011;39010;48.088;7.954;2022-12-10T07:05:17;58.90;;;27.02;;
53115;SDS011;39010;48.088;7.954;2022-12-10T07:07:44;70.75;;;29.52;;
53115;SDS011;39010;48.088;7.954;2022-12-10T07:12:37;60.55;;;28.13;;
53115;SDS011;39010;48.088;7.954;2022-12-10T07:17:30;59.83;;;27.25;;
53115;SDS011;39010;48.088;7.954;2022-12-10T07:19:56;58.95;;;27.73;;
53115;SDS011;39010;48.088;7.954;2022-12-10T07:22:23;57.53;;;25.02;;
53115;SDS011;39010;48.088;7.954;2022-12-10T07:27:16;58.20;;;24.83;;
53115;SDS011;39010;48.088;7.954;2022-12-10T07:29:43;57.40;;;26.90;;
53115;SDS011;39010;48.088;7.954;2022-12-10T07:32:10;55.28;;;25.10;;
53115;SDS011;39010;48.088;7.954;2022-12-10T07:34:36;54.92;;;25.85;;
53115;SDS011;39010;48.088;7.954;2022-12-10T07:39:29;56.85;;;24.67;;
53115;SDS011;39010;48.088;7.954;2022-12-10T07:44:23;59.70;;;25.75;;
53115;SDS011;39010;48.088;7.954;2022-12-10T07:46:52;57.10;;;25.80;;
53115;SDS011;39010;48.088;7.954;2022-12-10T07:49:20;55.67;;;25.27;;
53115;SDS011;39010;48.088;7.954;2022-12-10T07:51:47;56.83;;;24.95;;
53115;SDS011;39010;48.088;7.954;2022-12-10T07:54:15;53.97;;;24.77;;
53115;SDS011;39010;48.088;7.954;2022-12-10T07:56:43;54.05;;;25.88;;
53115;SDS011;39010;48.088;7.954;2022-12-10T07:59:10;61.88;;;25.67;;
53115;SDS011;39010;48.088;7.954;2022-12-10T08:01:37;49.35;;;24.77;;
53115;SDS011;39010;48.088;7.954;2022-12-10T08:04:03;61.33;;;25.63;;
53115;SDS011;39010;48.088;7.954;2022-12-10T08:06:30;53.65;;;25.35;;
53115;SDS011;39010;48.088;7.954;2022-12-10T08:09:00;57.72;;;25.48;;
53115;SDS011;39010;48.088;7.954;2022-12-10T08:11:26;58.95;;;26.23;;
53115;SDS011;39010;48.088;7.954;2022-12-10T08:13:54;56.78;;;24.38;;
53115;SDS011;39010;48.088;7.954;2022-12-10T08:16:23;53.25;;;24.13;;
53115;SDS011;39010;48.088;7.954;2022-12-10T08:18:52;51.38;;;24.65;;
53115;SDS011;39010;48.088;7.954;2022-12-10T08:21:21;48.65;;;24.48;;
53115;SDS011;39010;48.088;7.954;2022-12-10T08:23:49;53.75;;;23.67;;
53115;SDS011;39010;48.088;7.954;2022-12-10T08:28:44;51.03;;;22.85;;
53115;SDS011;39010;48.088;7.954;2022-12-10T08:31:12;54.88;;;24.98;;
53115;SDS011;39010;48.088;7.954;2022-12-10T08:33:40;54.67;;;23.98;;
53115;SDS011;39010;48.088;7.954;2022-12-10T08:36:08;53.83;;;22.65;;
53115;SDS011;39010;48.088;7.954;2022-12-10T08:38:37;52.60;;;22.23;;
53115;SDS011;39010;48.088;7.954;2022-12-10T08:41:08;52.53;;;22.40;;
53115;SDS011;39010;48.088;7.954;2022-12-10T08:43:39;55.00;;;23.65;;
53115;SDS011;39010;48.088;7.954;2022-12-10T08:46:06;54.65;;;24.33;;
53115;SDS011;39010;48.088;7.954;2022-12-10T08:48:34;46.22;;;21.33;;
53115;SDS011;39010;48.088;7.954;2022-12-10T08:51:01;54.60;;;24.38;;
53115;SDS011;39010;48.088;7.954;2022-12-10T08:53:29;52.55;;;22.65;;
53115;SDS011;39010;48.088;7.954;2022-12-10T08:55:57;50.55;;;21.77;;
53115;SDS011;39010;48.088;7.954;2022-12-10T08:58:24;51.03;;;22.23;;
53115;SDS011;39010;48.088;7.954;2022-12-10T09:00:51;53.92;;;22.35;;
53115;SDS011;39010;48.088;7.954;2022-12-10T09:03:18;44.17;;;19.55;;
53115;SDS011;39010;48.088;7.954;2022-12-10T09:05:45;47.72;;;21.17;;
53115;SDS011;39010;48.088;7.954;2022-12-10T09:10:38;50.40;;;21.95;;
53115;SDS011;39010;48.088;7.954;2022-12-10T09:13:06;52.35;;;21.00;;
53115;SDS011;39010;48.088;7.954;2022-12-10T09:15:32;54.85;;;23.27;;
53115;SDS011;39010;48.088;7.954;2022-12-10T09:17:59;59.63;;;24.95;;
53115;SDS011;39010;48.088;7.954;2022-12-10T09:20:26;57.50;;;24.88;;
53115;SDS011;39010;48.088;7.954;2022-12-10T09:22:52;84.72;;;35.90;;
53115;SDS011;39010;48.088;7.954;2022-12-10T09:25:18;82.53;;;32.70;;
53115;SDS011;39010;48.088;7.954;2022-12-10T09:27:47;78.88;;;31.92;;
53115;SDS011;39010;48.088;7.954;2022-12-10T09:30:16;65.70;;;28.30;;
53115;SDS011;39010;48.088;7.954;2022-12-10T09:32:43;63.88;;;24.90;;
53115;SDS011;39010;48.088;7.954;2022-12-10T09:35:11;66.00;;;25.40;;
53115;SDS011;39010;48.088;7.954;2022-12-10T09:37:37;78.70;;;29.80;;
53115;SDS011;39010;48.088;7.954;2022-12-10T09:40:04;65.50;;;25.25;;
53115;SDS011;39010;48.088;7.954;2022-12-10T09:43:09;81.60;;;30.38;;
53115;SDS011;39010;48.088;7.954;2022-12-10T09:48:21;64.53;;;24.75;;
53115;SDS011;39010;48.088;7.954;2022-12-10T09:53:37;71.72;;;26.02;;
53115;SDS011;39010;48.088;7.954;2022-12-10T09:56:05;64.80;;;23.98;;
53115;SDS011;39010;48.088;7.954;2022-12-10T09:58:33;70.70;;;24.13;;
53115;SDS011;39010;48.088;7.954;2022-12-10T10:01:03;69.90;;;24.23;;
53115;SDS011;39010;48.088;7.954;2022-12-10T10:03:32;68.65;;;23.90;;
53115;SDS011;39010;48.088;7.954;2022-12-10T10:06:03;63.35;;;24.05;;
53115;SDS011;39010;48.088;7.954;2022-12-10T10:08:37;68.38;;;24.23;;
53115;SDS011;39010;48.088;7.954;2022-12-10T10:11:20;62.95;;;24.27;;
53115;SDS011;39010;48.088;7.954;2022-12-10T10:13:52;67.47;;;23.75;;
53115;SDS011;39010;48.088;7.954;2022-12-10T10:16:32;69.05;;;23.98;;
53115;SDS011;39010;48.088;7.954;2022-12-10T10:19:03;65.22;;;24.10;;
53115;SDS011;39010;48.088;7.954;2022-12-10T10:21:34;62.80;;;24.70;;
53115;SDS011;39010;48.088;7.954;2022-12-10T10:24:04;65.07;;;24.98;;
53115;SDS011;39010;48.088;7.954;2022-12-10T10:26:37;65.90;;;24.95;;
53115;SDS011;39010;48.088;7.954;2022-12-10T10:29:05;64.25;;;25.02;;
53115;SDS011;39010;48.088;7.954;2022-12-10T10:31:35;70.28;;;25.23;;
53115;SDS011;39010;48.088;7.954;2022-12-10T10:34:12;65.07;;;23.05;;
53115;SDS011;39010;48.088;7.954;2022-12-10T10:36:43;70.20;;;26.92;;
53115;SDS011;39010;48.088;7.954;2022-12-10T10:41:52;79.03;;;27.73;;
53115;SDS011;39010;48.088;7.954;2022-12-10T10:44:36;78.20;;;27.50;;
53115;SDS011;39010;48.088;7.954;2022-12-10T10:47:23;73.97;;;28.20;;
53115;SDS011;39010;48.088;7.954;2022-12-10T10:50:01;76.95;;;26.50;;
53115;SDS011;39010;48.088;7.954;2022-12-10T10:52:32;94.90;;;32.30;;
53115;SDS011;39010;48.088;7.954;2022-12-10T10:55:03;84.00;;;29.60;;
53115;SDS011;39010;48.088;7.954;2022-12-10T10:57:33;84.43;;;29.95;;
53115;SDS011;39010;48.088;7.954;2022-12-10T11:00:05;92.97;;;33.00;;
53115;SDS011;39010;48.088;7.954;2022-12-10T11:02:36;100.53;;;30.38;;
53115;SDS011;39010;48.088;7.954;2022-12-10T11:05:05;78.47;;;26.60;;
53115;SDS011;39010;48.088;7.954;2022-12-10T11:07:40;84.28;;;27.48;;
53115;SDS011;39010;48.088;7.954;2022-12-10T11:10:20;81.65;;;27.88;;
53115;SDS011;39010;48.088;7.954;2022-12-10T11:15:32;72.22;;;25.17;;
53115;SDS011;39010;48.088;7.954;2022-12-10T11:18:09;72.30;;;25.33;;
53115;SDS011;39010;48.088;7.954;2022-12-10T11:34:18;71.28;;;23.67;;
53115;SDS011;39010;48.088;7.954;2022-12-10T11:36:57;58.63;;;21.55;;
53115;SDS011;39010;48.088;7.954;2022-12-10T11:45:19;49.92;;;19.95;;
53115;SDS011;39010;48.088;7.954;2022-12-10T11:50:44;53.47;;;20.45;;
53115;SDS011;39010;48.088;7.954;2022-12-10T11:53:34;49.13;;;18.70;;
53115;SDS011;39010;48.088;7.954;2022-12-10T11:56:20;49.42;;;19.98;;
53115;SDS011;39010;48.088;7.954;2022-12-10T11:59:13;47.22;;;18.42;;
53115;SDS011;39010;48.088;7.954;2022-12-10T12:08:20;49.42;;;21.50;;
53115;SDS011;39010;48.088;7.954;2022-12-10T12:13:35;50.28;;;19.38;;
53115;SDS011;39010;48.088;7.954;2022-12-10T12:16:14;57.58;;;23.02;;
53115;SDS011;39010;48.088;7.954;2022-12-10T12:18:58;59.28;;;21.48;;
53115;SDS011;39010;48.088;7.954;2022-12-10T12:21:29;57.97;;;22.60;;
53115;SDS011;39010;48.088;7.954;2022-12-10T12:23:59;60.55;;;24.30;;
53115;SDS011;39010;48.088;7.954;2022-12-10T12:29:19;54.75;;;22.17;;
53115;SDS011;39010;48.088;7.954;2022-12-10T12:31:55;58.75;;;22.23;;
53115;SDS011;39010;48.088;7.954;2022-12-10T12:35:11;59.75;;;22.30;;
53115;SDS011;39010;48.088;7.954;2022-12-10T12:37:32;65.60;;;22.35;;
53115;SDS011;39010;48.088;7.954;2022-12-10T12:45:54;58.38;;;21.17;;
53115;SDS011;39010;48.088;7.954;2022-12-10T12:48:26;60.17;;;21.40;;
53115;SDS011;39010;48.088;7.954;2022-12-10T12:51:06;62.45;;;24.73;;
53115;SDS011;39010;48.088;7.954;2022-12-10T12:53:58;70.45;;;26.73;;
53115;SDS011;39010;48.088;7.954;2022-12-10T12:59:30;64.60;;;26.20;;
53115;SDS011;39010;48.088;7.954;2022-12-10T13:02:21;56.60;;;22.70;;
53115;SDS011;39010;48.088;7.954;2022-12-10T13:04:51;53.58;;;23.08;;
53115;SDS011;39010;48.088;7.954;2022-12-10T13:09:46;65.00;;;25.48;;
53115;SDS011;39010;48.088;7.954;2022-12-10T13:19:40;65.75;;;23.70;;
53115;SDS011;39010;48.088;7.954;2022-12-10T13:22:53;76.45;;;28.10;;
53115;SDS011;39010;48.088;7.954;2022-12-10T13:25:10;72.13;;;27.23;;
53115;SDS011;39010;48.088;7.954;2022-12-10T13:27:39;62.10;;;25.70;;
53115;SDS011;39010;48.088;7.954;2022-12-10T13:30:29;64.60;;;22.80;;
53115;SDS011;39010;48.088;7.954;2022-12-10T13:33:20;63.90;;;22.48;;
53115;SDS011;39010;48.088;7.954;2022-12-10T13:35:49;60.57;;;22.97;;
53115;SDS011;39010;48.088;7.954;2022-12-10T13:38:34;66.70;;;24.37;;
53115;SDS011;39010;48.088;7.954;2022-12-10T13:41:06;59.65;;;23.25;;
53115;SDS011;39010;48.088;7.954;2022-12-10T13:43:52;66.35;;;23.20;;
53115;SDS011;39010;48.088;7.954;2022-12-10T13:46:55;62.63;;;22.17;;
53115;SDS011;39010;48.088;7.954;2022-12-10T13:49:26;59.25;;;23.60;;
53115;SDS011;39010;48.088;7.954;2022-12-10T13:54:36;62.85;;;24.88;;
53115;SDS011;39010;48.088;7.954;2022-12-10T14:00:17;51.78;;;21.00;;
53115;SDS011;39010;48.088;7.954;2022-12-10T14:02:54;50.75;;;19.67;;
53115;SDS011;39010;48.088;7.954;2022-12-10T14:05:36;51.33;;;21.25;;
53115;SDS011;39010;48.088;7.954;2022-12-10T14:08:16;53.95;;;21.15;;
53115;SDS011;39010;48.088;7.954;2022-12-10T14:10:46;47.38;;;20.60;;
53115;SDS011;39010;48.088;7.954;2022-12-10T14:13:14;51.65;;;20.27;;
53115;SDS011;39010;48.088;7.954;2022-12-10T14:15:51;52.45;;;19.65;;
53115;SDS011;39010;48.088;7.954;2022-12-10T14:18:24;51.40;;;19.80;;
53115;SDS011;39010;48.088;7.954;2022-12-10T14:20:53;51.17;;;19.83;;
53115;SDS011;39010;48.088;7.954;2022-12-10T14:26:13;70.65;;;25.45;;
53115;SDS011;39010;48.088;7.954;2022-12-10T14:28:48;75.07;;;26.27;;
53115;SDS011;39010;48.088;7.954;2022-12-10T14:31:32;64.03;;;25.02;;
53115;SDS011;39010;48.088;7.954;2022-12-10T14:34:05;59.55;;;23.60;;
53115;SDS011;39010;48.088;7.954;2022-12-10T14:36:55;67.28;;;23.20;;
53115;SDS011;39010;48.088;7.954;2022-12-10T14:39:29;58.15;;;23.67;;
53115;SDS011;39010;48.088;7.954;2022-12-10T14:42:02;60.60;;;24.75;;
53115;SDS011;39010;48.088;7.954;2022-12-10T14:44:32;64.03;;;25.83;;
53115;SDS011;39010;48.088;7.954;2022-12-10T14:47:04;70.20;;;24.17;;
53115;SDS011;39010;48.088;7.954;2022-12-10T14:49:45;56.65;;;23.00;;
53115;SDS011;39010;48.088;7.954;2022-12-10T14:52:15;62.20;;;23.20;;
53115;SDS011;39010;48.088;7.954;2022-12-10T14:54:44;61.50;;;22.70;;
53115;SDS011;39010;48.088;7.954;2022-12-10T15:00:35;59.63;;;23.27;;
53115;SDS011;39010;48.088;7.954;2022-12-10T15:03:07;66.53;;;25.52;;
53115;SDS011;39010;48.088;7.954;2022-12-10T15:05:36;58.50;;;23.52;;
53115;SDS011;39010;48.088;7.954;2022-12-10T15:08:04;67.57;;;26.20;;
53115;SDS011;39010;48.088;7.954;2022-12-10T15:10:40;66.45;;;24.08;;
53115;SDS011;39010;48.088;7.954;2022-12-10T15:13:21;73.35;;;28.88;;
53115;SDS011;39010;48.088;7.954;2022-12-10T15:15:51;69.80;;;27.60;;
53115;SDS011;39010;48.088;7.954;2022-12-10T15:18:19;63.38;;;25.75;;
53115;SDS011;39010;48.088;7.954;2022-12-10T15:20:53;66.07;;;25.23;;
53115;SDS011;39010;48.088;7.954;2022-12-10T15:23:23;73.68;;;27.98;;
53115;SDS011;39010;48.088;7.954;2022-12-10T15:28:25;66.32;;;26.48;;
53115;SDS011;39010;48.088;7.954;2022-12-10T15:30:57;70.05;;;26.65;;
53115;SDS011;39010;48.088;7.954;2022-12-10T15:33:37;61.13;;;24.10;;
53115;SDS011;39010;48.088;7.954;2022-12-10T15:36:35;62.65;;;24.90;;
53115;SDS011;39010;48.088;7.954;2022-12-10T15:49:26;62.22;;;26.73;;
53115;SDS011;39010;48.088;7.954;2022-12-10T15:51:52;61.55;;;25.48;;
53115;SDS011;39010;48.088;7.954;2022-12-10T15:55:02;67.10;;;25.73;;
53115;SDS011;39010;48.088;7.954;2022-12-10T15:57:14;69.00;;;24.92;;
53115;SDS011;39010;48.088;7.954;2022-12-10T15:59:41;64.03;;;25.17;;
53115;SDS011;39010;48.088;7.954;2022-12-10T16:02:14;60.58;;;25.25;;
53115;SDS011;39010;48.088;7.954;2022-12-10T16:04:52;60.90;;;23.05;;
53115;SDS011;39010;48.088;7.954;2022-12-10T16:07:19;61.55;;;24.73;;
53115;SDS011;39010;48.088;7.954;2022-12-10T16:09:45;65.10;;;25.77;;
53115;SDS011;39010;48.088;7.954;2022-12-10T16:12:13;66.85;;;25.85;;
53115;SDS011;39010;48.088;7.954;2022-12-10T16:14:41;67.60;;;27.15;;
53115;SDS011;39010;48.088;7.954;2022-12-10T16:17:26;62.05;;;24.15;;
53115;SDS011;39010;48.088;7.954;2022-12-10T16:19:55;62.42;;;26.02;;
53115;SDS011;39010;48.088;7.954;2022-12-10T16:22:24;65.15;;;25.92;;
53115;SDS011;39010;48.088;7.954;2022-12-10T16:24:50;59.95;;;24.55;;
53115;SDS011;39010;48.088;7.954;2022-12-10T16:27:17;63.05;;;28.88;;
53115;SDS011;39010;48.088;7.954;2022-12-10T16:32:10;63.88;;;25.15;;
53115;SDS011;39010;48.088;7.954;2022-12-10T16:34:37;55.42;;;23.08;;
53115;SDS011;39010;48.088;7.954;2022-12-10T16:37:05;55.88;;;22.42;;
53115;SDS011;39010;48.088;7.954;2022-12-10T16:39:32;55.47;;;24.20;;
53115;SDS011;39010;48.088;7.954;2022-12-10T16:41:59;56.03;;;23.38;;
53115;SDS011;39010;48.088;7.954;2022-12-10T16:44:25;54.55;;;22.92;;
53115;SDS011;39010;48.088;7.954;2022-12-10T16:46:52;55.03;;;22.17;;
53115;SDS011;39010;48.088;7.954;2022-12-10T16:49:18;57.30;;;23.67;;
53115;SDS011;39010;48.088;7.954;2022-12-10T16:51:44;52.25;;;22.08;;
53115;SDS011;39010;48.088;7.954;2022-12-10T16:54:11;60.80;;;24.60;;
53115;SDS011;39010;48.088;7.954;2022-12-10T16:56:39;58.15;;;23.80;;
53115;SDS011;39010;48.088;7.954;2022-12-10T16:59:08;64.70;;;24.33;;